Time;durP1;ratioP1;P1;durP2;ratioP2;P2;SDS_P1;SDS_P2;PMS_P1;PMS_P2;Temp;Humidity;BMP_temperature;BMP_pressure;BME280_temperature;BME280_humidity;BME280_pressure;Samples;Min_cycle;Max_cycle;Signal;HPM_P1;HPM_P2
2023/04/20 00:01:00;;;;;;;6.03;2.63;;;7.40;99.90;;;;;;5091832;28;20047;-67
2023/04/20 00:03:26;;;;;;;5.00;2.90;;;7.50;99.90;;;;;;5092049;28;20040;-67
2023/04/20 00:05:52;;;;;;;6.55;3.67;;;7.70;99.90;;;;;;5092246;28;20098;-67
2023/04/20 00:08:18;;;;;;;8.77;3.25;;;7.70;99.90;;;;;;5091874;28;20072;-67
2023/04/20 00:10:44;;;;;;;3.53;2.80;;;7.70;99.90;;;;;;5091839;28;20076;-67
2023/04/20 00:13:10;;;;;;;4.32;3.10;;;7.80;99.90;;;;;;5091981;28;20036;-67
2023/04/20 00:15:36;;;;;;;5.85;2.85;;;7.80;99.90;;;;;;5091656;28;20378;-67
2023/04/20 00:18:01;;;;;;;5.43;2.65;;;7.80;99.90;;;;;;5091526;28;20059;-67
2023/04/20 00:20:27;;;;;;;5.00;3.08;;;7.80;99.90;;;;;;5092289;28;20044;-67
2023/04/20 00:22:53;;;;;;;6.22;2.53;;;7.80;99.90;;;;;;5091950;28;20040;-67
2023/04/20 00:25:19;;;;;;;6.45;2.90;;;7.90;99.90;;;;;;5092209;28;20226;-67
2023/04/20 00:27:45;;;;;;;6.70;3.13;;;7.80;99.90;;;;;;5091902;28;20498;-67
2023/04/20 00:30:11;;;;;;;7.65;3.10;;;7.80;99.90;;;;;;5091060;28;20036;-67
2023/04/20 00:32:37;;;;;;;10.43;3.15;;;7.80;99.90;;;;;;5091168;28;20036;-67
2023/04/20 00:35:03;;;;;;;6.03;3.00;;;7.80;99.90;;;;;;5092157;28;20055;-67
2023/04/20 00:37:29;;;;;;;7.00;3.05;;;7.80;99.90;;;;;;5092042;28;20032;-67
2023/04/20 00:39:56;;;;;;;6.03;2.65;;;7.80;99.90;;;;;;5091621;28;20069;-67
2023/04/20 00:42:22;;;;;;;3.92;2.80;;;7.80;99.90;;;;;;5091267;28;20493;-67
2023/04/20 00:44:49;;;;;;;4.95;3.13;;;7.80;99.90;;;;;;5091906;28;20089;-67
2023/04/20 00:47:15;;;;;;;5.20;2.40;;;7.90;99.90;;;;;;5090807;28;20124;-67
2023/04/20 00:49:41;;;;;;;4.47;2.95;;;7.90;99.90;;;;;;5091983;28;20119;-67
2023/04/20 00:52:07;;;;;;;5.18;2.65;;;8.00;99.90;;;;;;5091204;28;20042;-67
2023/04/20 00:54:35;;;;;;;3.47;2.72;;;8.00;99.90;;;;;;5091907;28;20036;-67
2023/04/20 00:57:01;;;;;;;6.22;3.13;;;8.10;99.90;;;;;;5091164;28;20068;-66
2023/04/20 00:59:27;;;;;;;3.60;2.85;;;8.10;99.90;;;;;;5091850;28;20040;-67
2023/04/20 01:01:52;;;;;;;3.88;2.30;;;8.10;99.90;;;;;;5094915;28;20122;-67
2023/04/20 01:04:18;;;;;;;8.02;2.67;;;8.20;99.90;;;;;;5095529;28;20044;-67
2023/04/20 01:06:44;;;;;;;6.32;2.72;;;8.20;99.90;;;;;;5095415;28;20047;-66
2023/04/20 01:09:11;;;;;;;4.63;2.33;;;8.20;99.90;;;;;;5095663;28;20508;-67
2023/04/20 01:11:37;;;;;;;3.47;2.22;;;8.30;99.90;;;;;;5095114;28;20539;-66
2023/04/20 01:14:02;;;;;;;4.25;2.72;;;8.30;99.90;;;;;;5095503;28;20040;-67
2023/04/20 01:16:28;;;;;;;5.15;2.45;;;8.40;99.90;;;;;;5095359;28;20040;-66
2023/04/20 01:18:53;;;;;;;4.95;2.13;;;8.40;99.90;;;;;;5095331;28;20058;-66
2023/04/20 01:21:22;;;;;;;3.30;2.30;;;8.50;99.90;;;;;;5095148;28;20036;-67
2023/04/20 01:23:48;;;;;;;3.55;2.22;;;8.50;99.90;;;;;;5095453;28;20040;-67
2023/04/20 01:26:16;;;;;;;5.53;2.45;;;8.50;99.90;;;;;;5095401;28;20105;-67
2023/04/20 01:28:42;;;;;;;3.83;2.10;;;8.60;99.90;;;;;;5094994;28;20168;-66
2023/04/20 01:31:09;;;;;;;4.13;2.03;;;8.60;99.90;;;;;;5094851;28;20508;-67
2023/04/20 01:33:35;;;;;;;2.63;1.88;;;8.60;99.90;;;;;;5095173;28;20053;-67
2023/04/20 01:36:02;;;;;;;4.53;2.10;;;8.60;99.90;;;;;;5095146;28;20028;-66
2023/04/20 01:38:30;;;;;;;4.78;2.13;;;8.70;99.90;;;;;;5094942;28;20070;-67
2023/04/20 01:40:57;;;;;;;3.75;1.98;;;8.60;99.90;;;;;;5094830;28;20032;-67
2023/04/20 01:43:23;;;;;;;4.15;2.05;;;8.70;99.90;;;;;;5094781;28;20046;-67
2023/04/20 01:45:49;;;;;;;7.15;2.45;;;8.70;99.90;;;;;;5094744;28;20044;-67
2023/04/20 01:48:15;;;;;;;5.82;2.10;;;8.70;99.90;;;;;;5094566;28;20118;-67
2023/04/20 01:50:40;;;;;;;3.10;2.22;;;8.70;99.90;;;;;;5094706;28;20047;-67
2023/04/20 01:53:06;;;;;;;4.25;2.05;;;8.70;99.90;;;;;;5058970;22;1036377;-66
2023/04/20 01:55:32;;;;;;;6.28;2.10;;;8.70;99.90;;;;;;5087822;28;20087;-64
2023/04/20 01:57:58;;;;;;;3.53;1.85;;;8.60;99.90;;;;;;5087294;28;20040;-64
2023/04/20 02:00:24;;;;;;;4.43;1.90;;;8.60;99.90;;;;;;5090890;28;20119;-64
2023/04/20 02:02:50;;;;;;;4.57;1.95;;;8.60;99.90;;;;;;5072155;28;20037;-63
2023/04/20 02:05:15;;;;;;;3.55;2.08;;;8.60;99.90;;;;;;5073215;28;20051;-64
2023/04/20 02:07:43;;;;;;;5.72;3.10;;;8.60;99.90;;;;;;5073997;28;20036;-63
2023/04/20 02:10:09;;;;;;;7.05;2.22;;;8.60;99.90;;;;;;5056156;28;20428;-63
2023/04/20 02:12:35;;;;;;;3.95;2.10;;;8.60;99.90;;;;;;5072069;28;20040;-63
2023/04/20 02:15:01;;;;;;;3.08;1.92;;;8.60;99.90;;;;;;5074343;28;20143;-63
2023/04/20 02:17:26;;;;;;;2.65;1.98;;;8.60;99.90;;;;;;5074120;28;20067;-64
2023/04/20 02:19:52;;;;;;;4.80;2.15;;;8.60;99.90;;;;;;5073835;28;20707;-64
2023/04/20 02:22:17;;;;;;;6.88;2.50;;;8.50;99.90;;;;;;5073755;28;20048;-64
2023/04/20 02:24:43;;;;;;;5.13;2.40;;;8.50;99.90;;;;;;5073700;28;20041;-64
2023/04/20 02:27:09;;;;;;;3.95;2.50;;;8.50;99.90;;;;;;5073767;28;20510;-63
2023/04/20 02:29:35;;;;;;;3.85;2.10;;;8.50;99.90;;;;;;5073420;28;20067;-63
2023/04/20 02:32:00;;;;;;;6.63;2.60;;;8.40;99.90;;;;;;5073555;28;20501;-63
2023/04/20 02:34:26;;;;;;;3.90;2.15;;;8.40;99.90;;;;;;5073299;28;20036;-63
2023/04/20 02:36:51;;;;;;;5.88;2.20;;;8.40;99.90;;;;;;5073748;28;20135;-63
2023/04/20 02:39:17;;;;;;;6.50;2.20;;;8.40;99.90;;;;;;5073394;28;20041;-64
2023/04/20 02:41:43;;;;;;;3.90;2.40;;;8.40;99.90;;;;;;5073262;28;20033;-63
2023/04/20 02:44:08;;;;;;;7.07;2.17;;;8.40;99.90;;;;;;5073645;28;20036;-63
2023/04/20 02:46:34;;;;;;;2.72;2.10;;;8.30;99.90;;;;;;5055656;28;20044;-63
2023/04/20 02:49:00;;;;;;;6.38;2.22;;;8.30;99.90;;;;;;5073391;28;20070;-63
2023/04/20 02:51:25;;;;;;;5.07;2.38;;;8.30;99.90;;;;;;5073297;28;20043;-63
2023/04/20 02:53:51;;;;;;;3.42;2.35;;;8.30;99.90;;;;;;5072798;28;20045;-64
2023/04/20 02:56:16;;;;;;;2.97;1.88;;;8.30;99.90;;;;;;5073210;28;20044;-63
2023/04/20 02:58:42;;;;;;;4.72;2.13;;;8.30;99.90;;;;;;5072991;28;20077;-63
2023/04/20 03:01:08;;;;;;;7.57;2.50;;;8.30;99.90;;;;;;5072745;28;20517;-64
2023/04/20 03:03:33;;;;;;;6.32;1.77;;;8.40;99.90;;;;;;5072835;28;20070;-64
2023/04/20 03:05:59;;;;;;;3.95;2.03;;;8.30;99.90;;;;;;5073121;28;20044;-64
2023/04/20 03:08:24;;;;;;;5.25;2.45;;;8.30;99.90;;;;;;5072773;28;20055;-64
2023/04/20 03:10:50;;;;;;;7.32;2.67;;;8.30;99.90;;;;;;5072311;28;20032;-65
2023/04/20 03:13:15;;;;;;;3.67;1.95;;;8.30;99.90;;;;;;5072939;28;20044;-64
2023/04/20 03:15:42;;;;;;;5.22;2.80;;;8.30;99.90;;;;;;5072807;28;20406;-64
2023/04/20 03:18:08;;;;;;;5.13;2.42;;;8.30;99.90;;;;;;5072226;28;20512;-64
2023/04/20 03:20:34;;;;;;;5.90;2.45;;;8.30;99.90;;;;;;5072575;28;20037;-65
2023/04/20 03:22:59;;;;;;;3.40;2.30;;;8.30;99.90;;;;;;5072899;28;20047;-64
2023/04/20 03:25:25;;;;;;;8.32;2.75;;;8.30;99.90;;;;;;5072203;28;20048;-64
2023/04/20 03:27:50;;;;;;;4.78;1.95;;;8.30;99.90;;;;;;5072872;28;20060;-64
2023/04/20 03:30:16;;;;;;;4.70;2.58;;;8.30;99.90;;;;;;5072425;28;20089;-64
2023/04/20 03:32:41;;;;;;;8.98;2.33;;;8.40;99.90;;;;;;5072642;28;20533;-64
2023/04/20 03:35:08;;;;;;;2.85;1.83;;;8.30;99.90;;;;;;5072184;28;20374;-64
2023/04/20 03:37:38;;;;;;;5.00;2.55;;;8.30;99.90;;;;;;5072525;28;20043;-64
2023/04/20 03:40:06;;;;;;;6.35;2.05;;;8.30;99.90;;;;;;5072183;28;20043;-64
2023/04/20 03:42:31;;;;;;;4.57;2.47;;;8.30;99.90;;;;;;5054169;28;20044;-64
2023/04/20 03:44:57;;;;;;;5.68;2.40;;;8.30;99.90;;;;;;5072501;28;20033;-64
2023/04/20 03:47:23;;;;;;;3.25;2.45;;;8.30;99.90;;;;;;5072478;28;20044;-64
2023/04/20 03:49:48;;;;;;;4.10;2.50;;;8.30;99.90;;;;;;5072191;28;20048;-64
2023/04/20 03:52:14;;;;;;;3.05;2.25;;;8.30;99.90;;;;;;5071829;28;20408;-64
2023/04/20 03:54:39;;;;;;;5.05;2.50;;;8.30;99.90;;;;;;5072189;28;20395;-64
2023/04/20 03:57:05;;;;;;;6.72;2.53;;;8.30;99.90;;;;;;5072431;28;20452;-64
2023/04/20 03:59:30;;;;;;;3.60;2.15;;;8.30;99.90;;;;;;5072268;28;20462;-64
2023/04/20 04:01:57;;;;;;;3.88;2.63;;;8.30;99.90;;;;;;5069909;28;20043;-64
2023/04/20 04:04:22;;;;;;;5.03;2.42;;;8.30;99.90;;;;;;5071385;28;20486;-64
2023/04/20 04:06:48;;;;;;;2.70;2.00;;;8.30;99.90;;;;;;5071138;28;20058;-64
2023/04/20 04:09:13;;;;;;;6.47;2.58;;;8.40;99.90;;;;;;5070612;28;20443;-64
2023/04/20 04:11:39;;;;;;;4.40;2.53;;;8.40;99.90;;;;;;5071865;28;20085;-64
2023/04/20 04:14:05;;;;;;;5.43;2.72;;;8.40;99.90;;;;;;5072112;28;20037;-64
2023/04/20 04:16:33;;;;;;;4.47;2.45;;;8.40;99.90;;;;;;5054049;28;20387;-65
2023/04/20 04:18:59;;;;;;;6.13;2.67;;;8.40;99.90;;;;;;5071866;28;20045;-64
2023/04/20 04:21:24;;;;;;;3.85;1.98;;;8.40;99.90;;;;;;5071704;28;20500;-65
2023/04/20 04:23:50;;;;;;;7.22;2.35;;;8.40;99.90;;;;;;5071770;28;20044;-64
2023/04/20 04:26:17;;;;;;;8.55;2.08;;;8.40;99.90;;;;;;5072013;28;20036;-64
2023/04/20 04:28:44;;;;;;;4.95;2.22;;;8.40;99.90;;;;;;5071869;28;20074;-64
2023/04/20 04:31:11;;;;;;;4.43;3.08;;;8.30;99.90;;;;;;5071588;28;20036;-64
2023/04/20 04:33:36;;;;;;;5.35;2.33;;;8.30;99.90;;;;;;5053755;28;20513;-64
2023/04/20 04:36:03;;;;;;;6.75;2.22;;;8.30;99.90;;;;;;5077156;28;20036;-64
2023/04/20 04:38:28;;;;;;;5.75;2.47;;;8.30;99.90;;;;;;5078260;28;20483;-64
2023/04/20 04:40:55;;;;;;;4.28;2.22;;;8.20;99.90;;;;;;5077506;28;20039;-64
2023/04/20 04:43:21;;;;;;;3.80;1.98;;;8.20;99.90;;;;;;5078452;28;20040;-64
2023/04/20 04:45:46;;;;;;;4.68;2.53;;;8.20;99.90;;;;;;5078128;28;20391;-64
2023/04/20 04:48:12;;;;;;;4.32;2.20;;;8.20;99.90;;;;;;5078330;28;20071;-64
2023/04/20 04:50:38;;;;;;;3.75;2.58;;;8.10;99.90;;;;;;5077490;28;20075;-64
2023/04/20 04:53:03;;;;;;;5.28;2.20;;;8.10;99.90;;;;;;5077918;28;20043;-64
2023/04/20 04:55:29;;;;;;;2.20;1.83;;;8.10;99.90;;;;;;5078042;28;20409;-65
2023/04/20 04:57:56;;;;;;;4.40;2.17;;;8.10;99.90;;;;;;5077937;28;20036;-65
2023/04/20 05:00:22;;;;;;;3.28;2.15;;;8.10;99.90;;;;;;5077898;28;20065;-65
2023/04/20 05:02:48;;;;;;;3.03;2.30;;;8.00;99.90;;;;;;5078373;28;20064;-65
2023/04/20 05:05:13;;;;;;;4.57;2.00;;;8.00;99.90;;;;;;5078081;28;20029;-65
2023/04/20 05:07:39;;;;;;;4.35;1.80;;;8.00;99.90;;;;;;5077929;28;20505;-64
2023/04/20 05:10:06;;;;;;;3.95;1.85;;;8.00;99.90;;;;;;5077576;28;20514;-64
2023/04/20 05:12:32;;;;;;;4.45;1.88;;;8.00;99.90;;;;;;5077699;28;20048;-64
2023/04/20 05:14:58;;;;;;;4.93;2.17;;;7.90;99.90;;;;;;5077397;28;20036;-64
2023/04/20 05:17:23;;;;;;;3.05;2.00;;;7.90;99.90;;;;;;5078111;28;20166;-64
2023/04/20 05:19:49;;;;;;;3.50;2.22;;;7.90;99.90;;;;;;5077818;28;20046;-64
2023/04/20 05:22:14;;;;;;;3.65;2.17;;;7.90;99.90;;;;;;5077694;28;20036;-64
2023/04/20 05:24:41;;;;;;;2.42;1.63;;;7.90;99.90;;;;;;5078174;28;20082;-64
2023/04/20 05:27:07;;;;;;;3.08;1.85;;;7.90;99.90;;;;;;5077961;28;20478;-64
2023/04/20 05:29:32;;;;;;;2.65;2.03;;;7.90;99.90;;;;;;5077876;28;20086;-64
2023/04/20 05:31:58;;;;;;;6.13;1.85;;;7.90;99.90;;;;;;5077526;28;20490;-64
2023/04/20 05:34:23;;;;;;;5.18;2.22;;;7.80;99.90;;;;;;5077910;28;20043;-64
2023/04/20 05:36:50;;;;;;;3.83;2.10;;;7.80;99.90;;;;;;5077789;28;20040;-64
2023/04/20 05:39:16;;;;;;;3.55;2.00;;;7.80;99.90;;;;;;5077342;28;20547;-64
2023/04/20 05:41:42;;;;;;;3.72;1.85;;;7.70;99.90;;;;;;5077154;28;20044;-64
2023/04/20 05:44:07;;;;;;;2.92;2.10;;;7.80;99.90;;;;;;5077939;28;20045;-64
2023/04/20 05:46:33;;;;;;;5.18;2.65;;;7.70;99.90;;;;;;5075148;28;20036;-64
2023/04/20 05:48:58;;;;;;;4.50;2.15;;;7.70;99.90;;;;;;5074125;28;20048;-64
2023/04/20 05:51:27;;;;;;;3.92;2.10;;;7.70;99.90;;;;;;5073759;28;20113;-64
2023/04/20 05:53:53;;;;;;;6.15;2.60;;;7.60;99.90;;;;;;5074483;28;20033;-64
2023/04/20 05:56:19;;;;;;;3.65;2.35;;;7.60;99.90;;;;;;5074546;28;20032;-64
2023/04/20 05:58:44;;;;;;;3.90;2.50;;;7.60;99.90;;;;;;5074585;28;20045;-64
2023/04/20 06:01:10;;;;;;;5.40;2.65;;;7.50;99.90;;;;;;5074078;28;20406;-64
2023/04/20 06:03:36;;;;;;;6.65;2.35;;;7.50;99.90;;;;;;5074237;28;20042;-64
2023/04/20 06:06:01;;;;;;;4.82;3.15;;;7.30;99.90;;;;;;5056299;28;20032;-64
2023/04/20 06:08:27;;;;;;;7.28;3.05;;;7.30;99.90;;;;;;5074339;28;20036;-64
2023/04/20 06:10:56;;;;;;;10.30;3.28;;;7.20;99.90;;;;;;5073976;28;20037;-64
2023/04/20 06:13:22;;;;;;;6.63;3.75;;;7.20;99.90;;;;;;5074202;28;20032;-64
2023/04/20 06:15:48;;;;;;;4.60;3.10;;;7.20;99.90;;;;;;5074153;28;20111;-64
2023/04/20 06:18:14;;;;;;;9.57;3.42;;;7.10;99.90;;;;;;5074036;28;20517;-64
2023/04/20 06:20:42;;;;;;;7.13;3.25;;;7.10;99.90;;;;;;5073953;28;20501;-64
2023/04/20 06:23:07;;;;;;;6.15;3.03;;;7.10;99.90;;;;;;5074074;28;20078;-64
2023/04/20 06:25:35;;;;;;;7.88;3.78;;;7.10;99.90;;;;;;5074027;28;20445;-64
2023/04/20 06:28:01;;;;;;;5.95;3.33;;;7.10;99.90;;;;;;5074081;28;20049;-64
2023/04/20 06:30:26;;;;;;;7.30;3.55;;;7.00;99.90;;;;;;5073693;28;20045;-64
2023/04/20 06:32:52;;;;;;;7.22;3.42;;;7.00;99.90;;;;;;5073440;28;20046;-64
2023/04/20 06:35:17;;;;;;;4.97;3.42;;;7.00;99.90;;;;;;5073997;28;20138;-64
2023/04/20 06:37:43;;;;;;;6.28;3.55;;;6.90;99.90;;;;;;5073927;28;20032;-65
2023/04/20 06:40:09;;;;;;;5.95;3.40;;;6.90;99.90;;;;;;5073512;28;20074;-65
2023/04/20 06:42:35;;;;;;;7.75;2.85;;;6.80;99.90;;;;;;5073442;28;20043;-65
2023/04/20 06:45:01;;;;;;;5.35;3.03;;;6.70;99.90;;;;;;5073567;28;20124;-65
2023/04/20 06:47:30;;;;;;;6.70;3.63;;;6.70;99.90;;;;;;5073439;28;20075;-65
2023/04/20 06:49:57;;;;;;;8.05;3.53;;;6.60;99.90;;;;;;5073313;28;20493;-65
2023/04/20 06:52:23;;;;;;;8.40;3.08;;;6.50;99.90;;;;;;5072920;28;20542;-65
2023/04/20 06:54:48;;;;;;;6.32;3.60;;;6.40;99.90;;;;;;5073445;28;20119;-64
2023/04/20 06:57:14;;;;;;;4.90;3.30;;;6.40;99.90;;;;;;5073116;28;20076;-64
2023/04/20 06:59:39;;;;;;;9.82;3.47;;;6.30;99.90;;;;;;5073244;28;20076;-65
2023/04/20 07:02:05;;;;;;;6.78;3.60;;;6.30;99.90;;;;;;5072740;28;20045;-64
2023/04/20 07:04:31;;;;;;;6.18;3.53;;;6.30;99.90;;;;;;5073404;28;20087;-64
2023/04/20 07:06:56;;;;;;;6.03;3.17;;;6.30;99.90;;;;;;5073286;28;20070;-65
2023/04/20 07:09:22;;;;;;;5.57;3.38;;;6.30;99.90;;;;;;5073112;28;20494;-64
2023/04/20 07:11:48;;;;;;;6.88;3.85;;;6.20;99.90;;;;;;5072619;28;20044;-64
2023/04/20 07:14:14;;;;;;;7.82;4.75;;;6.20;99.90;;;;;;5073107;28;20036;-65
2023/04/20 07:16:39;;;;;;;5.40;3.38;;;6.20;99.90;;;;;;5072832;28;20522;-64
2023/04/20 07:19:05;;;;;;;9.18;3.80;;;6.20;99.90;;;;;;5072698;28;20043;-64
2023/04/20 07:21:31;;;;;;;8.02;4.25;;;6.30;99.90;;;;;;5054222;28;20044;-64
2023/04/20 07:23:57;;;;;;;7.18;3.63;;;6.20;99.90;;;;;;5055144;28;20056;-64
2023/04/20 07:26:24;;;;;;;6.57;3.83;;;6.20;99.90;;;;;;5072719;28;20045;-64
2023/04/20 07:28:50;;;;;;;9.02;4.45;;;6.30;99.90;;;;;;5072228;28;20044;-64
2023/04/20 07:31:16;;;;;;;5.40;3.80;;;6.30;99.90;;;;;;5053915;28;20047;-64
2023/04/20 07:33:42;;;;;;;9.13;4.47;;;6.40;99.90;;;;;;5072794;28;20036;-64
2023/04/20 07:36:08;;;;;;;8.68;4.47;;;6.40;99.90;;;;;;5072697;28;20056;-64
2023/04/20 07:38:34;;;;;;;10.93;4.20;;;6.50;99.90;;;;;;5072593;28;20379;-64
2023/04/20 07:40:59;;;;;;;10.70;4.18;;;6.50;99.90;;;;;;5072217;28;20044;-64
2023/04/20 07:43:25;;;;;;;8.35;4.05;;;6.60;99.90;;;;;;5072426;28;20432;-64
2023/04/20 07:45:50;;;;;;;6.97;3.75;;;6.60;99.90;;;;;;5072183;28;20114;-64
2023/04/20 07:48:16;;;;;;;5.55;3.70;;;6.60;99.90;;;;;;5072572;28;20119;-64
2023/04/20 07:50:42;;;;;;;11.98;4.10;;;6.70;99.90;;;;;;5072036;28;20080;-64
2023/04/20 07:53:07;;;;;;;7.80;4.13;;;6.70;99.90;;;;;;5084002;22;20067;-60
2023/04/20 07:55:33;;;;;;;7.78;4.43;;;6.80;99.90;;;;;;5081281;28;20040;-61
2023/04/20 07:57:59;;;;;;;9.70;4.55;;;6.90;99.90;;;;;;5083664;28;20520;-61
2023/04/20 08:00:25;;;;;;;6.72;4.13;;;7.00;99.90;;;;;;5091708;28;20048;-61
2023/04/20 08:02:51;;;;;;;8.52;4.80;;;7.10;99.90;;;;;;5073907;28;20043;-61
2023/04/20 08:05:17;;;;;;;9.55;4.65;;;7.10;99.90;;;;;;5092323;28;20560;-61
2023/04/20 08:07:42;;;;;;;5.75;3.78;;;7.10;99.90;;;;;;5092374;28;20166;-62
2023/04/20 08:10:08;;;;;;;7.13;3.85;;;7.10;99.90;;;;;;5091568;28;20393;-61
2023/04/20 08:12:34;;;;;;;8.13;3.97;;;7.10;99.90;;;;;;5091908;28;20040;-62
2023/04/20 08:15:03;;;;;;;9.98;4.45;;;7.10;99.90;;;;;;5092028;28;20040;-62
2023/04/20 08:17:28;;;;;;;7.57;4.28;;;7.10;99.90;;;;;;5092334;28;20130;-62
2023/04/20 08:19:54;;;;;;;12.65;4.68;;;7.20;99.90;;;;;;5091821;28;20543;-62
2023/04/20 08:22:20;;;;;;;8.70;4.72;;;7.30;99.90;;;;;;5074647;28;20089;-62
2023/04/20 08:24:52;;;;;;;10.20;4.60;;;7.40;99.90;;;;;;5064469;28;20117;-62
2023/04/20 08:27:17;;;;;;;9.02;4.47;;;7.50;99.90;;;;;;5045427;28;20055;-62
2023/04/20 08:29:43;;;;;;;7.70;4.53;;;7.50;99.90;;;;;;5067223;28;20044;-62
2023/04/20 08:32:11;;;;;;;8.20;4.45;;;7.50;99.90;;;;;;5067986;28;20239;-62
2023/04/20 08:34:37;;;;;;;8.88;4.65;;;7.50;99.90;;;;;;5067087;28;20039;-62
2023/04/20 08:37:03;;;;;;;9.52;4.60;;;7.60;99.90;;;;;;5066768;28;20043;-62
2023/04/20 08:39:29;;;;;;;6.07;3.97;;;7.60;99.90;;;;;;5051924;28;20124;-62
2023/04/20 08:41:56;;;;;;;8.00;3.83;;;7.60;99.90;;;;;;5077808;28;20124;-62
2023/04/20 08:44:22;;;;;;;12.70;5.32;;;7.70;99.90;;;;;;5071525;28;20044;-62
2023/04/20 08:46:49;;;;;;;7.20;4.38;;;7.60;99.90;;;;;;5052325;28;20094;-62
2023/04/20 08:49:16;;;;;;;11.07;5.40;;;7.60;99.90;;;;;;5065967;28;20032;-62
2023/04/20 08:51:45;;;;;;;9.82;5.80;;;7.60;99.90;;;;;;5070320;28;20063;-62
2023/04/20 08:54:11;;;;;;;6.85;5.03;;;7.70;99.90;;;;;;5067638;28;20552;-62
2023/04/20 08:56:42;;;;;;;11.70;4.68;;;7.70;99.90;;;;;;5072653;28;20486;-62
2023/04/20 08:59:13;;;;;;;13.85;5.60;;;7.60;99.90;;;;;;5070320;28;20097;-62
2023/04/20 09:01:40;;;;;;;10.88;5.78;;;7.70;99.90;;;;;;5064613;28;20044;-62
2023/04/20 09:04:22;;;;;;;10.95;5.28;;;7.70;99.90;;;;;;5069753;28;20113;-62
2023/04/20 09:06:52;;;;;;;8.27;5.53;;;7.70;99.90;;;;;;5063886;28;20040;-62
2023/04/20 09:09:19;;;;;;;7.60;4.90;;;7.70;99.90;;;;;;5070629;28;20421;-62
2023/04/20 09:11:46;;;;;;;8.27;4.78;;;7.80;99.90;;;;;;5070576;28;20320;-62
2023/04/20 09:14:14;;;;;;;9.65;5.35;;;7.80;99.90;;;;;;5058292;28;20036;-62
2023/04/20 09:16:50;;;;;;;9.05;4.80;;;7.80;99.90;;;;;;5083039;28;20036;-62
2023/04/20 09:19:26;;;;;;;11.00;6.57;;;7.80;99.90;;;;;;5076145;28;20036;-62
2023/04/20 09:21:53;;;;;;;9.98;4.97;;;7.90;99.90;;;;;;5069345;28;20055;-62
2023/04/20 09:24:30;;;;;;;11.27;5.70;;;7.90;99.90;;;;;;5061109;28;20110;-62
2023/04/20 09:26:56;;;;;;;8.30;5.22;;;8.10;99.90;;;;;;5074643;28;20040;-62
2023/04/20 09:29:24;;;;;;;9.00;5.47;;;8.30;99.90;;;;;;5077824;28;20062;-62
2023/04/20 09:31:50;;;;;;;10.85;6.80;;;8.30;99.90;;;;;;5050450;28;20099;-62
2023/04/20 09:34:16;;;;;;;13.38;5.80;;;8.40;99.90;;;;;;5072470;28;20032;-62
2023/04/20 09:36:44;;;;;;;11.25;5.85;;;8.30;99.90;;;;;;5084986;28;20561;-62
2023/04/20 09:39:11;;;;;;;11.38;6.75;;;8.30;99.90;;;;;;5068300;28;20048;-62
2023/04/20 09:41:38;;;;;;;13.65;6.00;;;8.40;99.90;;;;;;5086642;28;20061;-62
2023/04/20 09:44:05;;;;;;;11.10;6.32;;;8.40;99.90;;;;;;5081788;28;20440;-62
2023/04/20 09:46:33;;;;;;;13.68;7.03;;;8.40;99.90;;;;;;5072312;28;20401;-62
2023/04/20 09:49:02;;;;;;;10.48;6.60;;;8.40;99.90;;;;;;5053960;28;20048;-62
2023/04/20 09:51:30;;;;;;;12.13;7.85;;;8.50;99.90;;;;;;5072023;28;20044;-62
2023/04/20 09:53:58;;;;;;;11.27;7.70;;;8.60;99.90;;;;;;5073124;28;20036;-62
2023/04/20 09:56:25;;;;;;;8.10;5.78;;;8.80;99.90;;;;;;5072001;28;20041;-62
2023/04/20 09:58:51;;;;;;;11.43;7.05;;;8.90;99.90;;;;;;5070225;28;20048;-62
2023/04/20 10:01:18;;;;;;;10.98;6.65;;;8.80;99.90;;;;;;5065652;28;20036;-62
2023/04/20 10:03:44;;;;;;;11.50;6.00;;;8.80;99.90;;;;;;5083857;28;20040;-62
2023/04/20 10:06:23;;;;;;;10.77;6.97;;;8.90;99.90;;;;;;5077747;28;20085;-62
2023/04/20 10:08:50;;;;;;;10.98;6.95;;;8.90;99.90;;;;;;5061012;28;20048;-62
2023/04/20 10:11:29;;;;;;;7.85;7.00;;;8.90;99.90;;;;;;5050240;28;20033;-63
2023/04/20 10:13:56;;;;;;;14.23;8.82;;;8.80;99.90;;;;;;5069227;28;20044;-62
2023/04/20 10:16:22;;;;;;;12.57;8.80;;;8.70;99.90;;;;;;5073519;28;20029;-63
2023/04/20 10:19:02;;;;;;;13.65;7.60;;;8.70;99.90;;;;;;5081099;28;20032;-62
2023/04/20 10:21:29;;;;;;;12.52;7.15;;;8.60;99.90;;;;;;5036685;28;20115;-62
2023/04/20 10:23:55;;;;;;;13.40;8.48;;;8.60;99.90;;;;;;5077682;28;20032;-62
2023/04/20 10:26:21;;;;;;;10.55;7.93;;;8.70;99.90;;;;;;5068119;28;20758;-62
2023/04/20 10:28:47;;;;;;;14.82;8.65;;;8.80;99.90;;;;;;5063332;28;20040;-62
2023/04/20 10:31:14;;;;;;;13.00;9.02;;;8.80;99.90;;;;;;5073492;28;20036;-62
2023/04/20 10:33:55;;;;;;;11.32;7.50;;;8.90;99.90;;;;;;5071216;28;20533;-62
2023/04/20 10:36:22;;;;;;;;;;;8.80;99.90;;;;;;5076640;28;20035;-62
2023/04/20 10:38:47;;;;;;;14.30;8.27;;;8.80;99.90;;;;;;5087070;28;19924;-62
2023/04/20 10:41:13;;;;;;;14.43;9.57;;;8.70;99.90;;;;;;5055430;28;20043;-62
2023/04/20 10:43:41;;;;;;;12.98;8.68;;;8.80;99.90;;;;;;5053428;28;20560;-62
2023/04/20 10:46:17;;;;;;;12.73;8.50;;;8.90;99.90;;;;;;5073487;28;20036;-62
2023/04/20 10:49:03;;;;;;;14.18;8.30;;;9.00;99.90;;;;;;5073120;28;20033;-62
2023/04/20 10:51:29;;;;;;;12.68;9.23;;;9.10;99.90;;;;;;5071890;28;20041;-62
2023/04/20 10:54:04;;;;;;;14.18;9.48;;;9.20;99.90;;;;;;5071568;28;20032;-62
2023/04/20 10:56:37;;;;;;;16.23;9.77;;;9.50;99.90;;;;;;5067405;28;20024;-62
2023/04/20 10:59:10;;;;;;;13.98;9.27;;;9.70;99.90;;;;;;5053308;28;20044;-62
2023/04/20 11:01:36;;;;;;;14.88;9.00;;;10.00;99.90;;;;;;5073853;28;20036;-62
2023/04/20 11:04:03;;;;;;;12.05;9.00;;;10.20;99.90;;;;;;5071176;28;20061;-62
2023/04/20 11:06:30;;;;;;;12.25;8.93;;;10.10;99.90;;;;;;5055059;28;20048;-62
2023/04/20 11:08:56;;;;;;;13.38;8.35;;;10.00;99.90;;;;;;5067947;28;20064;-62
2023/04/20 11:11:24;;;;;;;11.10;8.07;;;10.00;99.90;;;;;;5077941;28;20512;-62
2023/04/20 11:13:50;;;;;;;13.13;7.45;;;9.90;99.90;;;;;;5046499;28;20036;-62
2023/04/20 11:16:17;;;;;;;14.38;8.35;;;9.90;99.90;;;;;;5070491;28;20036;-62
2023/04/20 11:18:53;;;;;;;11.02;7.97;;;9.90;99.90;;;;;;5069561;28;20041;-61
2023/04/20 11:21:20;;;;;;;13.55;6.80;;;10.00;99.90;;;;;;5054492;28;20547;-62
2023/04/20 11:23:47;;;;;;;12.48;7.07;;;10.00;99.90;;;;;;5056236;28;20080;-62
2023/04/20 11:26:13;;;;;;;11.65;7.15;;;10.10;99.90;;;;;;5069512;28;20481;-62
2023/04/20 11:28:53;;;;;;;11.18;7.45;;;10.10;99.90;;;;;;5081809;28;20051;-62
2023/04/20 11:31:19;;;;;;;13.00;8.65;;;10.00;99.90;;;;;;5054347;28;20028;-62
2023/04/20 11:33:45;;;;;;;12.32;8.98;;;9.90;99.90;;;;;;5065546;28;20142;-62
2023/04/20 11:36:22;;;;;;;13.70;8.48;;;10.00;99.90;;;;;;5068107;28;20036;-62
2023/04/20 11:38:48;;;;;;;11.20;7.90;;;9.90;99.90;;;;;;5070353;28;20120;-62
2023/04/20 11:41:15;;;;;;;13.43;9.60;;;9.90;99.90;;;;;;5076555;28;20528;-62
2023/04/20 11:43:42;;;;;;;14.48;9.48;;;9.90;99.90;;;;;;5068706;28;20398;-62
2023/04/20 11:46:15;;;;;;;14.27;9.93;;;10.00;99.90;;;;;;5049255;28;20051;-62
2023/04/20 11:48:41;;;;;;;12.90;9.02;;;10.40;99.90;;;;;;5069567;28;20484;-62
2023/04/20 11:51:07;;;;;;;14.15;9.65;;;10.70;99.90;;;;;;5077245;28;20032;-62
2023/04/20 11:53:33;;;;;;;11.85;8.60;;;10.80;99.90;;;;;;5070546;28;20032;-63
2023/04/20 11:55:59;;;;;;;14.60;9.68;;;10.70;99.90;;;;;;5080157;28;20041;-63
2023/04/20 11:58:24;;;;;;;11.00;7.80;;;10.50;99.90;;;;;;5071258;28;20035;-62
2023/04/20 12:00:50;;;;;;;12.18;8.70;;;10.30;99.90;;;;;;5071920;28;20033;-63
2023/04/20 12:03:16;;;;;;;12.73;7.32;;;10.20;99.90;;;;;;5068283;28;20130;-63
2023/04/20 12:05:42;;;;;;;14.18;8.85;;;10.20;99.90;;;;;;5073289;28;20143;-62
2023/04/20 12:08:08;;;;;;;13.52;8.90;;;10.20;99.90;;;;;;5079223;28;20041;-62
2023/04/20 12:10:33;;;;;;;13.13;8.82;;;10.30;99.90;;;;;;5077714;28;20028;-62
2023/04/20 12:13:00;;;;;;;19.05;9.13;;;10.50;99.90;;;;;;5068515;28;20039;-62
2023/04/20 12:15:25;;;;;;;13.02;9.25;;;10.70;99.90;;;;;;5059859;28;20043;-62
2023/04/20 12:17:52;;;;;;;14.23;9.45;;;10.60;99.90;;;;;;5079209;28;20482;-62
2023/04/20 12:20:18;;;;;;;10.68;8.13;;;10.60;99.90;;;;;;5071977;28;20401;-62
2023/04/20 12:22:43;;;;;;;12.55;8.27;;;10.40;99.90;;;;;;5079170;28;20044;-62
2023/04/20 12:25:09;;;;;;;11.40;8.25;;;10.40;99.90;;;;;;5067314;28;20032;-62
2023/04/20 12:27:34;;;;;;;11.90;8.30;;;10.40;99.90;;;;;;5075834;28;20044;-62
2023/04/20 12:30:00;;;;;;;13.27;7.88;;;10.40;99.90;;;;;;5070587;28;20051;-62
2023/04/20 12:32:26;;;;;;;12.82;8.32;;;10.40;99.90;;;;;;5048335;28;20483;-62
2023/04/20 12:34:51;;;;;;;12.15;6.93;;;10.50;99.90;;;;;;5069437;28;20398;-62
2023/04/20 12:37:18;;;;;;;13.80;8.57;;;10.60;99.90;;;;;;5056016;28;20044;-62
2023/04/20 12:39:44;;;;;;;9.48;6.63;;;10.70;99.90;;;;;;5062456;28;20052;-63
2023/04/20 12:42:10;;;;;;;9.75;6.88;;;10.80;99.90;;;;;;5047899;28;20063;-62
2023/04/20 12:44:35;;;;;;;10.27;6.60;;;10.80;99.90;;;;;;5065411;28;20075;-63
2023/04/20 12:47:01;;;;;;;12.15;8.02;;;10.80;99.90;;;;;;5069983;28;20501;-62
2023/04/20 12:49:26;;;;;;;14.38;8.55;;;10.70;99.90;;;;;;5067220;28;20037;-62